Time;durP1;ratioP1;P1;durP2;ratioP2;P2;SDS_P1;SDS_P2;PMS_P1;PMS_P2;Temp;Humidity;BMP_temperature;BMP_pressure;BME280_temperature;BME280_humidity;BME280_pressure;Samples;Min_cycle;Max_cycle;Signal;HPM_P1;HPM_P2
2022/05/16 00:00:56;;;;;;;12.02;5.65;;;;;;;17.92;48.12;101144.03;4971726;28;20042;-92
2022/05/16 00:03:22;;;;;;;9.93;5.40;;;;;;;17.87;48.23;101130.06;4973833;28;20034;-94
2022/05/16 00:05:47;;;;;;;9.90;5.43;;;;;;;17.86;48.24;101122.97;4953519;28;20019;-94
2022/05/16 00:08:12;;;;;;;9.85;5.30;;;;;;;17.78;48.29;101114.63;4972929;28;20027;-93
2022/05/16 00:10:38;;;;;;;9.15;4.95;;;;;;;17.76;48.44;101125.47;4966994;28;20588;-93
2022/05/16 00:13:03;;;;;;;12.32;5.28;;;;;;;17.74;48.68;101127.44;4974331;28;20037;-94
2022/05/16 00:15:29;;;;;;;8.57;5.22;;;;;;;17.68;48.88;101118.00;4956857;28;20429;-94
2022/05/16 00:17:55;;;;;;;10.48;4.90;;;;;;;17.62;48.99;101123.81;4975737;28;20469;-94
2022/05/16 00:20:20;;;;;;;10.18;5.10;;;;;;;17.62;49.16;101114.88;4971123;28;20038;-94
2022/05/16 00:22:45;;;;;;;8.02;4.82;;;;;;;17.54;49.27;101109.22;4975088;28;20066;-94
2022/05/16 00:25:14;;;;;;;10.40;5.22;;;;;;;17.59;49.31;101120.50;4974509;28;20423;-94
2022/05/16 00:27:39;;;;;;;9.48;4.75;;;;;;;17.52;49.65;101119.28;4975251;28;20053;-94
2022/05/16 00:30:07;;;;;;;11.00;5.05;;;;;;;17.41;49.83;101107.47;4972815;28;20493;-94
2022/05/16 00:32:33;;;;;;;13.25;4.85;;;;;;;17.41;49.89;101109.31;4968310;28;20031;-95
2022/05/16 00:34:58;;;;;;;11.88;5.53;;;;;;;17.39;49.97;101109.44;4970270;28;20034;-94
2022/05/16 00:37:23;;;;;;;11.30;5.38;;;;;;;17.36;50.11;101108.78;4974042;28;20038;-93
2022/05/16 00:39:49;;;;;;;8.88;5.53;;;;;;;17.31;50.33;101102.91;4967853;28;20350;-95
2022/05/16 00:42:14;;;;;;;12.35;5.63;;;;;;;17.30;50.43;101103.84;4975347;28;20169;-93
2022/05/16 00:44:40;;;;;;;11.90;5.90;;;;;;;17.25;50.55;101098.81;4969862;28;20027;-93
2022/05/16 00:47:06;;;;;;;9.32;5.60;;;;;;;17.26;50.11;101100.53;4956198;28;20049;-94
2022/05/16 00:49:35;;;;;;;12.50;5.65;;;;;;;17.24;50.78;101104.34;4971734;28;20469;-94
2022/05/16 00:52:24;;;;;;;10.48;5.25;;;;;;;17.24;49.90;101109.72;4965360;28;20026;-94
2022/05/16 00:54:59;;;;;;;10.43;5.35;;;;;;;17.23;50.57;101108.00;4966471;28;20533;-94
2022/05/16 00:57:46;;;;;;;14.48;5.45;;;;;;;17.16;50.94;101107.59;4976671;28;20039;-94
2022/05/16 01:00:20;;;;;;;9.88;5.97;;;;;;;17.11;51.36;101104.38;4954894;28;20043;-94
2022/05/16 01:05:41;;;;;;;11.13;5.63;;;;;;;17.06;51.37;101095.81;4968817;28;20069;-94
2022/05/16 01:08:12;;;;;;;11.55;5.55;;;;;;;17.04;51.46;101108.50;4972091;28;20117;-94
2022/05/16 01:10:38;;;;;;;11.35;5.28;;;;;;;17.01;51.71;101100.66;4966836;28;20024;-95
2022/05/16 01:13:04;;;;;;;10.13;5.22;;;;;;;16.96;51.66;101095.59;4970674;28;20040;-95
2022/05/16 01:15:42;;;;;;;8.43;4.97;;;;;;;16.96;51.27;101100.13;4969726;28;20109;-94
2022/05/16 01:18:10;;;;;;;9.07;5.25;;;;;;;16.92;51.97;101105.72;4970772;28;20037;-95
2022/05/16 01:21:01;;;;;;;9.07;5.40;;;;;;;16.87;52.15;101110.59;4966708;28;20031;-94
2022/05/16 01:23:28;;;;;;;10.43;5.20;;;;;;;16.66;52.24;101077.19;4970945;28;20037;-93
2022/05/16 01:25:54;;;;;;;10.75;5.15;;;;;;;16.82;52.21;101107.38;4966393;28;20035;-94
2022/05/16 01:28:23;;;;;;;8.95;5.05;;;;;;;16.77;52.46;101111.38;4969724;28;20035;-95
2022/05/16 01:30:50;;;;;;;11.05;4.97;;;;;;;16.73;52.51;101109.91;4949079;28;20170;-95
2022/05/16 01:33:20;;;;;;;6.88;4.68;;;;;;;16.66;52.80;101109.44;4964539;28;20031;-94
2022/05/16 01:35:46;;;;;;;12.98;5.40;;;;;;;16.62;53.32;101110.63;4967829;28;20155;-95
2022/05/16 01:38:18;;;;;;;8.43;4.90;;;;;;;16.63;53.26;101104.25;4958023;28;20153;-95
2022/05/16 01:40:47;;;;;;;10.93;5.00;;;;;;;16.59;53.14;101106.31;4966811;28;20069;-94
2022/05/16 01:43:14;;;;;;;11.23;4.45;;;;;;;16.60;53.11;101093.75;4970481;28;20043;-94
2022/05/16 01:45:41;;;;;;;11.35;4.90;;;;;;;16.54;53.63;101103.09;4968624;28;20031;-95
2022/05/16 01:48:08;;;;;;;8.70;5.25;;;;;;;16.51;53.88;101099.78;4950549;28;20042;-94
2022/05/16 01:50:33;;;;;;;9.63;4.85;;;;;;;16.44;53.80;101089.47;4952665;28;20087;-93
2022/05/16 01:52:58;;;;;;;9.23;4.80;;;;;;;16.46;53.88;101086.66;4969939;28;20039;-94
2022/05/16 01:55:24;;;;;;;10.10;5.03;;;;;;;16.41;54.29;101089.69;4969077;28;20034;-94
2022/05/16 01:57:49;;;;;;;11.77;5.30;;;;;;;16.34;54.58;101087.53;4940851;28;20035;-95
2022/05/16 02:00:16;;;;;;;10.85;5.07;;;;;;;16.34;54.62;101085.72;4968911;28;20480;-95
2022/05/16 02:02:42;;;;;;;11.45;5.22;;;;;;;16.30;54.82;101081.56;4952526;28;20077;-95
2022/05/16 02:05:09;;;;;;;9.15;4.95;;;;;;;16.31;54.73;101079.72;4968213;28;20554;-93
2022/05/16 02:07:35;;;;;;;11.13;5.07;;;;;;;16.26;55.01;101081.84;4970409;28;20776;-94
2022/05/16 02:10:00;;;;;;;10.80;5.03;;;;;;;16.16;55.25;101071.78;4965732;28;20125;-95
2022/05/16 02:12:25;;;;;;;9.98;5.20;;;;;;;16.17;55.53;101069.94;4963465;28;20249;-93
2022/05/16 02:14:50;;;;;;;9.43;5.10;;;;;;;16.14;55.38;101065.66;4964163;28;20102;-94
2022/05/16 02:17:16;;;;;;;8.60;4.50;;;;;;;16.11;55.62;101055.13;4945620;28;20100;-94
2022/05/16 02:19:41;;;;;;;8.73;4.88;;;;;;;16.06;55.89;101053.75;4963788;28;20027;-94
2022/05/16 02:24:50;;;;;;;9.80;4.65;;;;;;;16.01;56.21;101048.72;4965698;28;20041;-93
2022/05/16 02:27:16;;;;;;;10.77;5.57;;;;;;;16.05;55.99;101057.38;4966823;28;20039;-94
2022/05/16 02:29:43;;;;;;;8.50;5.22;;;;;;;16.02;56.33;101050.41;4955851;28;20038;-94
2022/05/16 02:32:10;;;;;;;8.23;5.07;;;;;;;15.98;55.85;101053.44;4966596;28;20074;-94
2022/05/16 02:34:37;;;;;;;8.45;5.22;;;;;;;15.96;56.31;101058.03;4967480;28;20756;-95
2022/05/16 02:37:02;;;;;;;8.80;5.03;;;;;;;15.98;56.29;101045.38;4967238;28;20057;-94
2022/05/16 02:39:28;;;;;;;11.00;4.88;;;;;;;15.93;56.90;101049.25;4963897;28;20023;-94
2022/05/16 02:41:54;;;;;;;8.30;5.32;;;;;;;15.89;56.81;101042.38;4964251;28;20425;-95
2022/05/16 02:44:21;;;;;;;10.68;5.43;;;;;;;15.90;56.60;101041.41;4969930;28;20038;-95
2022/05/16 02:46:47;;;;;;;9.38;5.28;;;;;;;15.80;56.99;101034.97;4968432;28;20058;-93
2022/05/16 02:49:13;;;;;;;10.25;5.10;;;;;;;15.81;56.76;101025.09;4966537;28;20034;-93
2022/05/16 02:51:38;;;;;;;7.70;5.18;;;;;;;15.83;57.12;101032.03;4970074;28;20030;-93
2022/05/16 02:54:04;;;;;;;8.23;5.13;;;;;;;15.85;56.97;101030.13;4969441;28;20046;-94
2022/05/16 02:56:30;;;;;;;13.75;5.97;;;;;;;15.78;57.30;101028.81;4968838;28;20029;-94
2022/05/16 02:58:55;;;;;;;11.15;5.35;;;;;;;15.79;57.75;101022.47;4966999;28;20033;-94
2022/05/16 03:01:20;;;;;;;9.77;5.38;;;;;;;15.77;57.57;101024.44;4970355;28;20039;-94
2022/05/16 03:03:46;;;;;;;9.48;5.40;;;;;;;15.76;57.14;101024.53;4971823;28;20078;-93
2022/05/16 03:06:12;;;;;;;9.45;5.30;;;;;;;15.75;57.57;101017.44;4971369;28;20030;-94
2022/05/16 03:08:38;;;;;;;9.57;5.00;;;;;;;15.76;58.04;101012.00;4971758;28;20100;-93
2022/05/16 03:11:04;;;;;;;7.68;5.18;;;;;;;15.66;57.78;101005.53;4956460;28;20373;-94
2022/05/16 03:13:31;;;;;;;10.73;5.28;;;;;;;15.74;57.70;101013.91;4973322;28;20109;-94
2022/05/16 03:15:57;;;;;;;10.52;5.63;;;;;;;15.72;57.61;101018.53;4972207;28;20062;-95
2022/05/16 03:18:23;;;;;;;10.50;5.65;;;;;;;15.69;57.42;101021.41;4965915;28;20058;-95
2022/05/16 03:20:51;;;;;;;11.10;6.13;;;;;;;15.67;57.66;101021.53;4971313;28;20069;-94
2022/05/16 03:23:17;;;;;;;7.82;5.60;;;;;;;15.62;57.92;101012.03;4974587;28;20037;-94
2022/05/16 03:25:42;;;;;;;11.27;5.28;;;;;;;15.63;58.02;101011.94;4972747;28;20026;-94
2022/05/16 03:28:07;;;;;;;9.10;5.25;;;;;;;15.64;58.21;101019.06;4969252;28;20800;-95
2022/05/16 03:30:33;;;;;;;8.32;5.30;;;;;;;15.68;58.16;101019.72;4973014;28;20030;-94
2022/05/16 03:32:58;;;;;;;12.32;5.82;;;;;;;15.67;58.08;101023.34;4972072;28;20423;-95
2022/05/16 03:35:24;;;;;;;8.32;5.63;;;;;;;15.65;58.43;101014.56;4969286;28;20051;-95
2022/05/16 03:37:49;;;;;;;9.30;5.43;;;;;;;15.67;58.14;101017.97;4969341;28;20039;-94
2022/05/16 03:42:58;;;;;;;10.02;5.53;;;;;;;15.69;57.94;101011.53;4969670;28;20069;-96
2022/05/16 03:45:24;;;;;;;10.07;5.38;;;;;;;15.71;58.17;101018.63;4973746;28;20109;-96
2022/05/16 03:47:49;;;;;;;10.70;5.38;;;;;;;15.71;58.24;101015.94;4968424;28;20246;-96
2022/05/16 03:50:14;;;;;;;8.32;5.25;;;;;;;15.70;58.18;101012.41;4972536;28;20031;-96
2022/05/16 03:52:41;;;;;;;11.65;5.38;;;;;;;15.62;58.44;100999.47;4974380;28;20789;-96
2022/05/16 03:55:08;;;;;;;11.15;5.70;;;;;;;15.67;58.46;101008.13;4956401;28;20039;-95
2022/05/16 03:57:33;;;;;;;6.57;5.40;;;;;;;15.64;58.49;101004.75;4969390;28;20143;-95
2022/05/16 03:59:59;;;;;;;8.13;5.25;;;;;;;15.66;58.50;101005.53;4971139;28;20488;-94
2022/05/16 04:02:24;;;;;;;9.88;5.60;;;;;;;15.65;58.61;101007.34;4973727;28;20030;-95
2022/05/16 04:04:49;;;;;;;7.60;5.07;;;;;;;15.61;58.58;101003.13;4972144;28;20066;-95
2022/05/16 04:07:15;;;;;;;8.15;5.30;;;;;;;15.61;58.51;101003.13;4969975;28;20034;-95
2022/05/16 04:09:40;;;;;;;10.10;5.35;;;;;;;15.58;58.45;101007.84;4972426;28;20504;-95
2022/05/16 04:12:06;;;;;;;8.57;5.70;;;;;;;15.60;58.66;101013.97;4971674;28;20039;-94
2022/05/16 04:14:32;;;;;;;12.13;5.75;;;;;;;15.62;58.71;101014.72;4971443;28;20035;-96
2022/05/16 04:16:58;;;;;;;12.35;5.70;;;;;;;15.69;58.66;101021.41;4970152;28;20090;-96
2022/05/16 04:19:23;;;;;;;9.73;5.50;;;;;;;15.69;58.49;101003.50;4971778;28;20037;-96
2022/05/16 04:21:49;;;;;;;9.15;5.65;;;;;;;15.79;58.61;101016.25;4954930;28;20030;-96
2022/05/16 04:24:14;;;;;;;9.50;5.65;;;;;;;15.83;58.13;101021.31;4973371;28;20031;-95
2022/05/16 04:26:39;;;;;;;10.88;5.55;;;;;;;15.84;57.92;101017.69;4973039;28;20030;-95
2022/05/16 04:29:04;;;;;;;8.15;5.45;;;;;;;15.96;57.83;101028.50;4970215;28;20375;-95
2022/05/16 04:31:30;;;;;;;7.18;5.63;;;;;;;15.93;57.78;101018.84;4973179;28;20038;-96
2022/05/16 04:33:55;;;;;;;7.57;5.32;;;;;;;15.97;57.98;101022.16;4952154;28;20087;-94
2022/05/16 04:36:20;;;;;;;10.82;5.40;;;;;;;15.98;58.28;101018.53;4972098;28;20101;-94
2022/05/16 04:38:45;;;;;;;9.13;5.55;;;;;;;16.00;58.18;101022.81;4969508;28;20039;-95
2022/05/16 04:43:55;;;;;;;8.55;5.50;;;;;;;16.10;57.79;101026.56;4973074;28;20520;-95
2022/05/16 04:46:20;;;;;;;8.82;6.32;;;;;;;16.14;57.79;101028.06;4954697;28;20151;-95
2022/05/16 04:48:46;;;;;;;10.77;5.97;;;;;;;16.16;57.78;101022.56;4970240;28;20030;-95
2022/05/16 04:51:12;;;;;;;8.75;5.68;;;;;;;16.27;57.78;101016.44;4972901;28;20416;-94
2022/05/16 04:53:37;;;;;;;7.80;5.85;;;;;;;16.41;56.50;101027.91;4972491;28;20045;-95
2022/05/16 04:56:05;;;;;;;11.73;6.18;;;;;;;16.49;57.19;101034.56;4965104;28;20643;-95
2022/05/16 04:58:33;;;;;;;11.00;5.85;;;;;;;16.61;56.74;101042.59;4969020;28;20178;-95
2022/05/16 05:00:59;;;;;;;7.97;5.90;;;;;;;16.64;57.27;101030.75;4964832;28;20045;-95
2022/05/16 05:03:24;;;;;;;8.50;6.03;;;;;;;16.72;56.22;101036.44;4961274;28;20030;-93
2022/05/16 05:05:50;;;;;;;9.80;6.07;;;;;;;16.79;56.39;101029.66;4968879;28;20050;-93
2022/05/16 05:08:15;;;;;;;8.68;5.70;;;;;;;16.83;56.08;101031.13;4967854;28;20264;-94
2022/05/16 05:16:15;;;;;;;12.18;6.50;;;;;;;16.96;56.29;101031.06;4972510;28;20092;-94
2022/05/16 05:18:40;;;;;;;11.80;6.00;;;;;;;17.04;56.69;101035.88;4964347;28;20051;-94
2022/05/16 05:21:06;;;;;;;9.40;6.15;;;;;;;17.05;55.61;101021.47;4972635;28;20058;-93
2022/05/16 05:23:37;;;;;;;11.00;6.80;;;;;;;17.07;55.76;101030.28;4970021;28;20117;-95
2022/05/16 05:26:02;;;;;;;30.73;17.40;;;;;;;17.10;56.09;101032.75;4971243;28;20038;-95
2022/05/16 05:28:28;;;;;;;10.35;6.57;;;;;;;17.18;56.65;101035.72;4969159;28;20503;-95
2022/05/16 05:30:54;;;;;;;8.95;5.90;;;;;;;17.29;56.26;101037.59;4971696;28;20380;-95
2022/05/16 05:33:19;;;;;;;7.55;5.70;;;;;;;17.32;55.51;101026.59;4973043;28;20089;-95
2022/05/16 05:35:44;;;;;;;7.70;6.05;;;;;;;17.49;54.85;101025.31;4971112;28;20043;-95
2022/05/16 05:38:09;;;;;;;9.05;5.88;;;;;;;17.66;54.42;101032.94;4964017;28;20037;-95
2022/05/16 05:40:37;;;;;;;10.90;6.18;;;;;;;17.79;54.45;101027.47;4970438;28;20023;-94
2022/05/16 05:43:07;;;;;;;13.00;6.18;;;;;;;17.95;53.81;101037.91;4971107;28;20041;-94
2022/05/16 05:45:33;;;;;;;8.10;6.20;;;;;;;18.00;53.73;101044.63;4970317;28;20030;-92
2022/05/16 05:47:58;;;;;;;10.23;6.30;;;;;;;18.11;54.38;101051.88;4968328;28;20058;-95
2022/05/16 05:50:24;;;;;;;7.90;6.43;;;;;;;18.19;53.86;101060.22;4970909;28;20030;-92
2022/05/16 05:52:49;;;;;;;8.73;5.90;;;;;;;18.25;53.41;101056.16;4956744;28;20436;-93
2022/05/16 05:55:15;;;;;;;9.35;6.28;;;;;;;18.27;53.20;101062.31;4971114;28;20026;-91
2022/05/16 05:57:40;;;;;;;8.60;5.75;;;;;;;18.23;53.27;101056.31;4967179;28;20035;-93
2022/05/16 06:00:09;;;;;;;10.02;5.82;;;;;;;18.23;53.81;101056.31;4967530;28;20035;-90
2022/05/16 06:02:40;;;;;;;9.55;6.10;;;;;;;18.26;53.34;101060.56;4962098;28;20031;-91
2022/05/16 06:05:07;;;;;;;11.80;6.20;;;;;;;18.29;53.29;101076.50;4968638;28;20031;-93
2022/05/16 06:07:32;;;;;;;11.50;6.63;;;;;;;18.35;53.74;101066.09;4967119;28;20138;-93
2022/05/16 06:09:57;;;;;;;12.70;6.40;;;;;;;18.44;53.52;101059.13;4964695;28;20050;-91
2022/05/16 06:12:23;;;;;;;8.95;5.95;;;;;;;18.59;53.48;101062.41;4965856;28;20089;-91
2022/05/16 06:14:48;;;;;;;10.10;7.50;;;;;;;18.70;53.14;101070.50;4968854;28;20464;-92
2022/05/16 06:17:14;;;;;;;10.48;5.93;;;;;;;18.84;52.71;101074.75;4963342;28;20420;-92
2022/05/16 06:19:39;;;;;;;12.02;7.07;;;;;;;19.07;51.87;101067.50;4967439;28;20034;-92
2022/05/16 06:22:04;;;;;;;9.07;6.82;;;;;;;19.37;51.48;101072.16;4975086;28;20027;-92
2022/05/16 06:27:14;;;;;;;7.93;5.88;;;;;;;19.57;50.73;101070.47;4967658;28;20057;-90
2022/05/16 06:29:39;;;;;;;11.93;5.50;;;;;;;19.58;50.40;101066.78;4965587;28;20393;-93
2022/05/16 06:32:05;;;;;;;10.50;5.57;;;;;;;19.59;50.54;101079.28;4968567;28;20030;-93
2022/05/16 06:34:30;;;;;;;11.32;5.47;;;;;;;19.62;51.11;101089.88;4964114;28;20146;-90
2022/05/16 06:36:55;;;;;;;9.88;5.90;;;;;;;19.62;50.92;101081.75;4963132;28;20149;-92
2022/05/16 06:39:21;;;;;;;9.02;5.80;;;;;;;19.64;50.61;101095.97;4968842;28;20023;-92
2022/05/16 06:41:46;;;;;;;10.93;4.97;;;;;;;19.56;50.58;101093.94;4965141;28;20031;-88
2022/05/16 06:44:14;;;;;;;10.27;5.68;;;;;;;19.57;50.56;101102.88;4965852;28;20496;-88
2022/05/16 06:46:41;;;;;;;11.07;4.68;;;;;;;19.61;50.68;101097.13;4946552;28;20113;-92
2022/05/16 06:49:06;;;;;;;10.23;4.45;;;;;;;19.65;50.43;101092.31;4969228;28;20396;-94
2022/05/16 06:51:31;;;;;;;8.63;4.05;;;;;;;19.77;51.24;101095.78;4969401;28;20164;-94
2022/05/16 06:53:56;;;;;;;11.38;4.43;;;;;;;19.86;49.86;101098.56;4971946;28;20398;-93
2022/05/16 06:56:22;;;;;;;11.05;4.30;;;;;;;19.94;49.78;101097.03;4967584;28;20041;-96
2022/05/16 06:58:47;;;;;;;8.95;4.20;;;;;;;20.10;50.27;101100.13;4970200;28;20453;-96
2022/05/16 07:01:12;;;;;;;8.85;3.92;;;;;;;20.25;49.08;101103.34;4969038;28;20370;-90
2022/05/16 07:03:40;;;;;;;12.30;4.43;;;;;;;20.35;49.62;101109.66;4967127;28;20499;-93
2022/05/16 07:06:06;;;;;;;10.18;5.00;;;;;;;20.49;49.40;101108.50;4974174;28;20038;-96
2022/05/16 07:08:31;;;;;;;8.98;4.10;;;;;;;20.65;48.98;101106.13;4974184;28;20058;-94
2022/05/16 07:10:57;;;;;;;8.25;4.07;;;;;;;20.84;48.58;101106.19;4970900;28;20035;-96
2022/05/16 07:13:27;;;;;;;8.15;3.88;;;;;;;20.99;48.21;101111.22;4970722;28;20042;-96
2022/05/16 07:15:52;;;;;;;5.47;3.67;;;;;;;20.98;47.97;101113.03;4970344;28;20072;-93
2022/05/16 07:18:17;;;;;;;7.57;3.78;;;;;;;20.99;48.27;101114.78;4966794;28;20023;-93
2022/05/16 07:20:43;;;;;;;7.82;3.60;;;;;;;21.02;48.78;101114.47;4969282;28;20030;-95
2022/05/16 07:23:09;;;;;;;8.90;4.10;;;;;;;21.05;48.75;101114.22;4970772;28;20035;-95
2022/05/16 07:27:56;;;;;;;12.55;4.93;;;;;;;21.11;48.45;101119.09;4967860;28;20479;-93
2022/05/16 07:28:21;;;;;;;11.20;4.22;;;;;;;21.21;48.93;101124.50;4968638;28;20046;-94
2022/05/16 07:30:46;;;;;;;8.50;4.20;;;;;;;21.31;48.75;101119.09;4973997;28;20037;-95
2022/05/16 07:33:12;;;;;;;9.77;4.00;;;;;;;21.47;47.96;101119.41;4969135;28;20471;-96
2022/05/16 07:35:38;;;;;;;9.65;4.13;;;;;;;21.57;48.11;101117.59;4959570;28;20488;-93
2022/05/16 07:38:04;;;;;;;9.80;4.63;;;;;;;21.78;48.73;101114.72;4958162;28;20049;-94
2022/05/16 07:40:32;;;;;;;7.43;3.63;;;;;;;21.92;47.51;101112.56;4923419;28;20077;-94
2022/05/16 07:42:58;;;;;;;8.13;4.05;;;;;;;22.02;47.39;101118.81;4961953;28;20439;-92
2022/05/16 07:45:24;;;;;;;7.75;3.40;;;;;;;22.05;47.87;101123.94;4960952;28;20030;-92
2022/05/16 07:47:50;;;;;;;8.35;3.10;;;;;;;22.08;48.28;101127.22;4964889;28;20034;-93
2022/05/16 07:50:16;;;;;;;8.68;3.25;;;;;;;22.12;47.68;101125.97;4963421;28;20400;-94
2022/05/16 07:52:47;;;;;;;13.63;4.30;;;;;;;22.14;47.61;101133.94;4962970;28;20030;-93
2022/05/16 07:55:13;;;;;;;7.45;3.80;;;;;;;22.11;47.92;101126.94;4966625;28;20030;-92
2022/05/16 07:57:39;;;;;;;6.97;4.10;;;;;;;22.13;47.74;101134.94;4953720;28;20325;-92
2022/05/16 08:00:05;;;;;;;7.35;3.60;;;;;;;22.14;48.02;101139.38;4968839;28;20035;-93
2022/05/16 08:02:30;;;;;;;9.68;3.33;;;;;;;22.25;47.31;101136.50;4968411;28;20121;-92
2022/05/16 08:04:56;;;;;;;11.60;4.57;;;;;;;22.41;47.19;101127.75;4968925;28;20447;-90
2022/05/16 08:07:22;;;;;;;9.30;3.78;;;;;;;22.67;47.03;101135.22;4962064;28;20456;-93
2022/05/16 08:12:34;;;;;;;11.93;3.25;;;;;;;23.81;43.79;101131.91;4960625;28;20107;-94
2022/05/16 08:15:00;;;;;;;6.55;3.15;;;;;;;24.09;43.06;101137.25;4969050;28;20069;-92
2022/05/16 08:17:26;;;;;;;7.88;3.10;;;;;;;23.95;42.96;101144.09;4967895;28;20665;-91
2022/05/16 08:19:51;;;;;;;6.65;2.63;;;;;;;23.76;43.92;101134.25;4962296;28;20568;-93
2022/05/16 08:22:17;;;;;;;8.98;3.03;;;;;;;24.07;43.98;101150.13;4967231;28;20035;-93
2022/05/16 08:24:43;;;;;;;6.38;2.80;;;;;;;25.50;40.57;101147.63;4969229;28;20034;-92
2022/05/16 08:27:09;;;;;;;7.15;2.72;;;;;;;27.04;38.26;101144.88;4965395;28;20038;-93
2022/05/16 08:29:34;;;;;;;5.53;2.20;;;;;;;28.18;35.51;101144.09;4967653;28;20475;-93
2022/05/16 08:32:00;;;;;;;9.48;2.60;;;;;;;29.09;33.85;101149.44;4967178;28;20065;-95
2022/05/16 08:34:25;;;;;;;6.55;2.75;;;;;;;29.46;33.03;101165.69;4966134;28;20100;-92
2022/05/16 08:42:35;;;;;;;5.47;2.42;;;;;;;31.36;31.22;101171.19;4952500;28;20392;-91
2022/05/16 08:45:14;;;;;;;10.85;2.75;;;;;;;31.44;30.17;101160.00;4964996;28;20041;-91
2022/05/16 08:48:08;;;;;;;9.52;2.70;;;;;;;31.79;31.01;101154.34;4961798;28;20061;-92
2022/05/16 08:50:49;;;;;;;6.72;2.90;;;;;;;32.48;29.46;101156.72;4949985;28;20054;-92
2022/05/16 08:53:27;;;;;;;4.78;2.75;;;;;;;32.84;28.62;101149.81;4968283;28;20034;-90
2022/05/16 08:56:05;;;;;;;7.40;2.70;;;;;;;33.54;28.59;101147.19;4958230;28;20037;-91
2022/05/16 08:58:39;;;;;;;4.57;2.90;;;;;;;34.04;27.24;101152.78;4964647;28;20081;-92
2022/05/16 09:01:12;;;;;;;7.22;2.53;;;;;;;34.39;26.40;101153.09;4967201;28;20062;-90
2022/05/16 09:03:43;;;;;;;;;;;;;;;35.09;26.99;101150.00;4968377;28;20086;-91
2022/05/16 09:06:15;;;;;;;9.13;2.63;;;;;;;35.18;25.25;101145.84;4957937;28;19953;-91
2022/05/16 09:09:19;;;;;;;8.85;2.58;;;;;;;35.93;25.00;101155.63;4966079;28;20046;-92
2022/05/16 09:12:07;;;;;;;7.93;2.85;;;;;;;36.68;25.06;101157.72;4961287;28;20165;-91
2022/05/16 09:14:44;;;;;;;6.28;3.03;;;;;;;37.30;23.82;101159.88;4960430;28;20133;-91
2022/05/16 09:17:14;;;;;;;6.13;2.60;;;;;;;36.83;23.96;101158.06;4967393;28;20114;-89
2022/05/16 09:20:01;;;;;;;4.25;2.20;;;;;;;36.28;24.45;101155.66;4964055;28;20027;-90
2022/05/16 09:22:42;;;;;;;7.50;3.22;;;;;;;36.45;24.76;101158.56;4960356;28;20035;-88
2022/05/16 09:25:14;;;;;;;6.03;2.58;;;;;;;35.55;24.65;101156.84;4954512;28;20626;-89
2022/05/16 09:30:29;;;;;;;4.07;2.28;;;;;;;33.77;26.50;101163.16;4964714;28;20050;-90
2022/05/16 09:33:11;;;;;;;5.80;2.50;;;;;;;34.56;26.18;101171.88;4966711;28;20143;-89
2022/05/16 09:35:37;;;;;;;7.13;3.13;;;;;;;34.50;24.77;101181.09;4957698;28;20046;-89
2022/05/16 09:38:03;;;;;;;5.83;3.30;;;;;;;33.82;26.03;101171.63;4967222;28;20030;-88
2022/05/16 09:40:53;;;;;;;8.75;3.72;;;;;;;34.28;26.25;101181.50;4965600;28;20034;-89
2022/05/16 09:43:20;;;;;;;6.43;2.50;;;;;;;35.22;25.08;101171.13;4964522;28;20081;-91
2022/05/16 09:45:51;;;;;;;5.20;2.50;;;;;;;36.31;24.19;101169.03;4963265;28;20457;-90
2022/05/16 09:48:21;;;;;;;4.82;2.20;;;;;;;36.56;23.08;101179.91;4958345;28;20392;-91
2022/05/16 09:50:59;;;;;;;6.70;2.60;;;;;;;36.09;24.05;101181.81;4962494;28;20097;-88
2022/05/16 09:53:31;;;;;;;5.35;2.55;;;;;;;35.34;24.95;101173.94;4956647;28;20528;-89
2022/05/16 09:56:03;;;;;;;7.05;2.63;;;;;;;34.77;24.88;101181.66;4959209;28;20033;-88
2022/05/16 09:58:35;;;;;;;4.43;2.30;;;;;;;33.99;25.70;101190.41;4963095;28;20369;-88
2022/05/16 10:01:06;;;;;;;4.32;2.35;;;;;;;33.43;27.05;101194.78;4962728;28;20039;-88
2022/05/16 10:03:44;;;;;;;4.72;2.42;;;;;;;32.34;28.22;101206.47;4963558;28;20065;-87
2022/05/16 10:06:31;;;;;;;5.35;2.60;;;;;;;31.21;29.55;101218.03;4954653;28;20030;-87
2022/05/16 10:09:14;;;;;;;6.65;2.55;;;;;;;30.12;31.96;101214.94;4964289;28;20038;-90
2022/05/16 10:11:42;;;;;;;4.22;2.45;;;;;;;29.72;32.78;101217.28;4962617;28;20089;-87
2022/05/16 10:14:07;;;;;;;7.82;3.00;;;;;;;29.52;33.09;101213.44;4956326;28;20507;-87
2022/05/16 10:16:35;;;;;;;4.57;2.90;;;;;;;28.97;34.30;101218.44;4961348;28;20030;-86
2022/05/16 10:19:05;;;;;;;8.02;3.03;;;;;;;28.18;35.69;101223.47;4958767;28;20113;-87
2022/05/16 10:21:37;;;;;;;4.60;2.88;;;;;;;27.74;36.48;101232.34;4969263;28;20027;-86
2022/05/16 10:24:05;;;;;;;11.77;3.38;;;;;;;27.15;39.30;101253.81;4963107;28;20031;-86
2022/05/16 10:26:35;;;;;;;8.27;3.30;;;;;;;25.46;45.56;101258.00;4958579;28;20035;-87
2022/05/16 10:29:08;;;;;;;7.38;3.55;;;;;;;23.57;55.66;101262.09;4965923;28;20034;-89
2022/05/16 10:34:35;;;;;;;8.20;4.45;;;;;;;21.01;67.76;101306.75;4966187;28;20101;-92
2022/05/16 10:37:02;;;;;;;9.63;5.13;;;;;;;20.46;74.30;101304.25;4967383;28;20496;-92
2022/05/16 10:39:29;;;;;;;8.05;4.97;;;;;;;20.23;74.84;101306.22;4965777;28;20105;-90
2022/05/16 10:42:06;;;;;;;11.02;5.15;;;;;;;20.05;74.87;101314.00;4964973;28;20037;-88
2022/05/16 10:44:48;;;;;;;11.85;5.15;;;;;;;20.17;73.33;101314.81;4965290;28;20058;-89
2022/05/16 10:47:23;;;;;;;13.88;5.20;;;;;;;20.81;73.93;101305.78;4963878;28;20027;-88
2022/05/16 10:50:01;;;;;;;10.70;6.05;;;;;;;23.06;67.09;101315.06;4955631;28;20034;-88
2022/05/16 10:52:33;;;;;;;9.02;4.93;;;;;;;24.71;60.33;101311.34;4965585;28;20039;-90
2022/05/16 10:54:59;;;;;;;11.35;4.85;;;;;;;26.39;56.01;101311.56;4963744;28;20070;-90
2022/05/16 10:57:39;;;;;;;8.32;4.70;;;;;;;27.16;51.32;101310.16;4968333;28;20105;-89
2022/05/16 11:00:11;;;;;;;10.90;6.25;;;;;;;27.27;51.34;101314.41;4971559;28;20609;-88
2022/05/16 11:03:03;;;;;;;8.60;4.13;;;;;;;27.36;50.30;101312.47;4968692;28;20035;-88
2022/05/16 11:05:55;;;;;;;8.43;5.03;;;;;;;27.42;46.96;101311.75;4955281;28;20035;-88
2022/05/16 11:08:41;;;;;;;8.65;4.72;;;;;;;27.80;46.58;101300.00;4964755;28;20416;-86
2022/05/16 11:11:28;;;;;;;10.15;4.43;;;;;;;28.47;45.92;101306.75;4948470;28;20512;-86
2022/05/16 11:14:05;;;;;;;8.93;5.47;;;;;;;28.53;43.29;101308.75;4960481;28;20034;-88
2022/05/16 11:16:34;;;;;;;8.05;5.03;;;;;;;28.34;42.99;101301.00;4963937;28;20030;-90
2022/05/16 11:19:16;;;;;;;9.35;5.50;;;;;;;28.62;42.62;101295.84;4966115;28;20035;-89
2022/05/16 11:22:04;;;;;;;9.25;5.80;;;;;;;28.91;41.69;101297.78;4965303;28;20052;-91
2022/05/16 11:25:00;;;;;;;7.97;5.40;;;;;;;29.03;42.01;101307.28;4959717;28;20039;-90
2022/05/16 11:27:34;;;;;;;13.43;5.88;;;;;;;28.21;43.01;101298.88;4961651;28;20037;-90
2022/05/16 11:30:12;;;;;;;8.52;5.63;;;;;;;27.26;44.62;101309.97;4966360;28;20066;-89
2022/05/16 11:33:04;;;;;;;9.38;5.78;;;;;;;26.29;47.42;101318.03;4965453;28;20555;-88
2022/05/16 11:35:43;;;;;;;17.55;7.45;;;;;;;24.72;58.22;101332.09;4964584;28;20047;-93
2022/05/16 11:38:25;;;;;;;11.27;6.40;;;;;;;22.80;64.73;101337.38;4967765;28;20146;-91
2022/05/16 11:41:15;;;;;;;10.13;6.07;;;;;;;21.62;66.65;101328.44;4967638;28;20467;-90
2022/05/16 11:43:52;;;;;;;11.35;6.55;;;;;;;20.88;71.28;101331.31;4954610;28;20077;-89
2022/05/16 11:46:23;;;;;;;12.13;7.95;;;;;;;20.65;75.20;101330.63;4968383;28;20129;-88
2022/05/16 11:49:04;;;;;;;9.95;6.30;;;;;;;20.41;73.57;101336.22;4962196;28;20137;-91
2022/05/16 11:51:54;;;;;;;9.93;6.53;;;;;;;20.24;73.78;101334.94;4966147;28;20041;-91
2022/05/16 11:54:25;;;;;;;10.90;6.53;;;;;;;20.06;73.38;101325.66;4961477;28;20043;-90
2022/05/16 12:02:33;;;;;;;10.35;6.70;;;;;;;20.55;72.77;101343.19;4968263;28;20054;-90
2022/05/16 12:05:01;;;;;;;11.10;6.57;;;;;;;20.78;71.31;101349.34;4962536;28;20042;-88
2022/05/16 12:07:35;;;;;;;8.02;5.57;;;;;;;20.76;69.02;101351.31;4965886;28;20762;-89
2022/05/16 12:10:15;;;;;;;11.38;5.65;;;;;;;20.72;67.22;101355.28;4968192;28;20165;-88